sensor_id;sensor_type;location;lat;lon;timestamp;temperature;humidity
61591;DHT22;71994;52.410;-1.966;2024-03-08T00:00:34;18.00;48.60
61591;DHT22;71994;52.410;-1.966;2024-03-08T00:03:41;18.00;48.70
61591;DHT22;71994;52.410;-1.966;2024-03-08T00:06:50;17.90;48.70
61591;DHT22;71994;52.410;-1.966;2024-03-08T00:09:57;17.90;48.70
61591;DHT22;71994;52.410;-1.966;2024-03-08T00:13:03;17.80;48.80
61591;DHT22;71994;52.410;-1.966;2024-03-08T00:16:10;17.80;48.80
61591;DHT22;71994;52.410;-1.966;2024-03-08T00:19:16;17.80;48.90
61591;DHT22;71994;52.410;-1.966;2024-03-08T00:22:25;17.70;49.00
61591;DHT22;71994;52.410;-1.966;2024-03-08T00:25:33;17.70;49.00
61591;DHT22;71994;52.410;-1.966;2024-03-08T00:28:40;17.70;49.00
61591;DHT22;71994;52.410;-1.966;2024-03-08T00:31:46;17.60;49.00
61591;DHT22;71994;52.410;-1.966;2024-03-08T00:34:53;17.60;49.00
61591;DHT22;71994;52.410;-1.966;2024-03-08T00:38:03;17.60;49.00
61591;DHT22;71994;52.410;-1.966;2024-03-08T00:41:09;17.60;49.20
61591;DHT22;71994;52.410;-1.966;2024-03-08T00:44:16;17.60;49.20
61591;DHT22;71994;52.410;-1.966;2024-03-08T00:47:22;17.60;49.10
61591;DHT22;71994;52.410;-1.966;2024-03-08T00:50:30;17.50;49.40
61591;DHT22;71994;52.410;-1.966;2024-03-08T00:53:39;17.50;49.40
61591;DHT22;71994;52.410;-1.966;2024-03-08T00:56:46;17.40;49.20
61591;DHT22;71994;52.410;-1.966;2024-03-08T00:59:52;17.50;49.20
61591;DHT22;71994;52.410;-1.966;2024-03-08T01:02:59;17.40;49.20
61591;DHT22;71994;52.410;-1.966;2024-03-08T01:06:06;17.40;49.00
61591;DHT22;71994;52.410;-1.966;2024-03-08T01:09:17;17.40;49.20
61591;DHT22;71994;52.410;-1.966;2024-03-08T01:12:28;17.40;49.20
61591;DHT22;71994;52.410;-1.966;2024-03-08T01:15:34;17.30;49.10
61591;DHT22;71994;52.410;-1.966;2024-03-08T01:18:44;17.30;49.20
61591;DHT22;71994;52.410;-1.966;2024-03-08T01:21:50;17.30;49.20
61591;DHT22;71994;52.410;-1.966;2024-03-08T01:25:01;17.20;49.20
61591;DHT22;71994;52.410;-1.966;2024-03-08T01:28:07;17.20;49.30
61591;DHT22;71994;52.410;-1.966;2024-03-08T01:31:14;17.20;49.20
61591;DHT22;71994;52.410;-1.966;2024-03-08T01:34:23;17.20;49.30
61591;DHT22;71994;52.410;-1.966;2024-03-08T01:37:31;17.10;49.30
61591;DHT22;71994;52.410;-1.966;2024-03-08T01:40:40;17.10;49.30
61591;DHT22;71994;52.410;-1.966;2024-03-08T01:43:47;17.10;49.30
61591;DHT22;71994;52.410;-1.966;2024-03-08T01:46:53;17.10;49.40
61591;DHT22;71994;52.410;-1.966;2024-03-08T01:50:00;17.10;49.50
61591;DHT22;71994;52.410;-1.966;2024-03-08T01:53:10;17.10;49.40
61591;DHT22;71994;52.410;-1.966;2024-03-08T01:56:21;17.10;49.50
61591;DHT22;71994;52.410;-1.966;2024-03-08T01:59:28;17.10;49.40
61591;DHT22;71994;52.410;-1.966;2024-03-08T02:02:34;17.00;49.50
61591;DHT22;71994;52.410;-1.966;2024-03-08T02:05:41;17.00;49.60
61591;DHT22;71994;52.410;-1.966;2024-03-08T02:08:49;16.90;49.70
61591;DHT22;71994;52.410;-1.966;2024-03-08T02:12:00;17.00;49.60
61591;DHT22;71994;52.410;-1.966;2024-03-08T02:15:07;16.90;49.70
61591;DHT22;71994;52.410;-1.966;2024-03-08T02:18:14;16.90;49.70
61591;DHT22;71994;52.410;-1.966;2024-03-08T02:21:23;16.90;49.70
61591;DHT22;71994;52.410;-1.966;2024-03-08T02:24:29;16.90;49.70
61591;DHT22;71994;52.410;-1.966;2024-03-08T02:27:36;16.90;49.60
61591;DHT22;71994;52.410;-1.966;2024-03-08T02:30:43;16.80;49.70
61591;DHT22;71994;52.410;-1.966;2024-03-08T02:33:49;16.80;49.70
61591;DHT22;71994;52.410;-1.966;2024-03-08T02:36:58;16.80;49.70
61591;DHT22;71994;52.410;-1.966;2024-03-08T02:40:05;16.80;49.70
61591;DHT22;71994;52.410;-1.966;2024-03-08T02:43:12;16.80;49.70
61591;DHT22;71994;52.410;-1.966;2024-03-08T02:46:19;16.80;49.70
61591;DHT22;71994;52.410;-1.966;2024-03-08T02:49:25;16.80;49.70
61591;DHT22;71994;52.410;-1.966;2024-03-08T02:52:36;16.80;49.60
61591;DHT22;71994;52.410;-1.966;2024-03-08T02:55:45;16.70;49.60
61591;DHT22;71994;52.410;-1.966;2024-03-08T02:58:52;16.80;49.60
61591;DHT22;71994;52.410;-1.966;2024-03-08T03:01:59;16.70;49.60
61591;DHT22;71994;52.410;-1.966;2024-03-08T03:05:06;16.70;49.60
61591;DHT22;71994;52.410;-1.966;2024-03-08T03:08:15;16.70;49.60
61591;DHT22;71994;52.410;-1.966;2024-03-08T03:11:22;16.70;49.60
61591;DHT22;71994;52.410;-1.966;2024-03-08T03:14:30;16.60;49.70
61591;DHT22;71994;52.410;-1.966;2024-03-08T03:17:37;16.60;49.60
61591;DHT22;71994;52.410;-1.966;2024-03-08T03:20:43;16.60;49.70
61591;DHT22;71994;52.410;-1.966;2024-03-08T03:23:52;16.60;49.80
61591;DHT22;71994;52.410;-1.966;2024-03-08T03:26:59;16.60;49.80
61591;DHT22;71994;52.410;-1.966;2024-03-08T03:30:14;16.60;49.70
61591;DHT22;71994;52.410;-1.966;2024-03-08T03:33:29;16.60;49.70
61591;DHT22;71994;52.410;-1.966;2024-03-08T03:36:37;16.60;49.80
61591;DHT22;71994;52.410;-1.966;2024-03-08T03:39:54;16.60;49.70
61591;DHT22;71994;52.410;-1.966;2024-03-08T03:43:01;16.60;49.80
61591;DHT22;71994;52.410;-1.966;2024-03-08T03:46:08;16.60;49.80
61591;DHT22;71994;52.410;-1.966;2024-03-08T03:49:14;16.60;49.90
61591;DHT22;71994;52.410;-1.966;2024-03-08T03:52:21;16.50;49.80
61591;DHT22;71994;52.410;-1.966;2024-03-08T03:55:30;16.50;49.90
61591;DHT22;71994;52.410;-1.966;2024-03-08T03:58:36;16.50;49.80
61591;DHT22;71994;52.410;-1.966;2024-03-08T04:01:43;16.50;49.80
61591;DHT22;71994;52.410;-1.966;2024-03-08T04:04:49;16.40;49.80
61591;DHT22;71994;52.410;-1.966;2024-03-08T04:07:56;16.40;50.00
61591;DHT22;71994;52.410;-1.966;2024-03-08T04:11:05;16.40;50.00
61591;DHT22;71994;52.410;-1.966;2024-03-08T04:14:11;16.40;50.00
61591;DHT22;71994;52.410;-1.966;2024-03-08T04:17:18;16.40;50.00
61591;DHT22;71994;52.410;-1.966;2024-03-08T04:20:24;16.40;50.00
61591;DHT22;71994;52.410;-1.966;2024-03-08T04:23:31;16.40;50.00
61591;DHT22;71994;52.410;-1.966;2024-03-08T04:26:45;16.30;50.00
61591;DHT22;71994;52.410;-1.966;2024-03-08T04:29:55;16.30;50.10
61591;DHT22;71994;52.410;-1.966;2024-03-08T04:33:02;16.30;50.10
61591;DHT22;71994;52.410;-1.966;2024-03-08T04:36:09;16.30;50.10
61591;DHT22;71994;52.410;-1.966;2024-03-08T04:39:16;16.20;50.00
61591;DHT22;71994;52.410;-1.966;2024-03-08T04:42:28;16.20;50.00
61591;DHT22;71994;52.410;-1.966;2024-03-08T04:45:36;16.30;50.00
61591;DHT22;71994;52.410;-1.966;2024-03-08T04:48:42;16.30;50.10
61591;DHT22;71994;52.410;-1.966;2024-03-08T04:51:49;16.20;50.10
61591;DHT22;71994;52.410;-1.966;2024-03-08T04:54:55;16.20;50.00
61591;DHT22;71994;52.410;-1.966;2024-03-08T04:58:04;16.20;50.00
61591;DHT22;71994;52.410;-1.966;2024-03-08T05:01:11;16.20;50.00
61591;DHT22;71994;52.410;-1.966;2024-03-08T05:04:18;16.20;50.00
61591;DHT22;71994;52.410;-1.966;2024-03-08T05:07:24;16.20;50.00
61591;DHT22;71994;52.410;-1.966;2024-03-08T05:10:30;16.10;50.00
61591;DHT22;71994;52.410;-1.966;2024-03-08T05:13:39;16.10;50.00
61591;DHT22;71994;52.410;-1.966;2024-03-08T05:16:49;16.10;50.10
61591;DHT22;71994;52.410;-1.966;2024-03-08T05:19:55;16.10;50.10
61591;DHT22;71994;52.410;-1.966;2024-03-08T05:23:01;16.10;50.10
61591;DHT22;71994;52.410;-1.966;2024-03-08T05:26:08;16.10;50.10
61591;DHT22;71994;52.410;-1.966;2024-03-08T05:29:17;16.10;50.10
61591;DHT22;71994;52.410;-1.966;2024-03-08T05:32:23;16.10;50.20
61591;DHT22;71994;52.410;-1.966;2024-03-08T05:35:30;16.10;50.20
61591;DHT22;71994;52.410;-1.966;2024-03-08T05:38:36;16.00;50.20
61591;DHT22;71994;52.410;-1.966;2024-03-08T05:41:43;16.00;50.20
61591;DHT22;71994;52.410;-1.966;2024-03-08T05:44:55;16.00;50.30
61591;DHT22;71994;52.410;-1.966;2024-03-08T05:48:02;16.00;50.30
61591;DHT22;71994;52.410;-1.966;2024-03-08T05:51:08;16.00;50.30
61591;DHT22;71994;52.410;-1.966;2024-03-08T05:54:18;16.00;50.20
61591;DHT22;71994;52.410;-1.966;2024-03-08T05:57:28;16.00;50.20
61591;DHT22;71994;52.410;-1.966;2024-03-08T06:00:37;16.00;50.30
61591;DHT22;71994;52.410;-1.966;2024-03-08T06:03:43;15.90;50.20
61591;DHT22;71994;52.410;-1.966;2024-03-08T06:06:51;15.90;50.30
61591;DHT22;71994;52.410;-1.966;2024-03-08T06:09:59;15.90;50.30
61591;DHT22;71994;52.410;-1.966;2024-03-08T06:13:05;15.90;50.30
61591;DHT22;71994;52.410;-1.966;2024-03-08T06:16:14;15.80;50.30
61591;DHT22;71994;52.410;-1.966;2024-03-08T06:19:20;15.90;50.30
61591;DHT22;71994;52.410;-1.966;2024-03-08T06:22:27;15.80;50.30
61591;DHT22;71994;52.410;-1.966;2024-03-08T06:25:33;15.80;50.30
61591;DHT22;71994;52.410;-1.966;2024-03-08T06:28:40;15.80;50.30
61591;DHT22;71994;52.410;-1.966;2024-03-08T06:31:49;15.80;50.30
61591;DHT22;71994;52.410;-1.966;2024-03-08T06:34:56;15.80;50.30
61591;DHT22;71994;52.410;-1.966;2024-03-08T06:38:03;15.80;50.30
61591;DHT22;71994;52.410;-1.966;2024-03-08T06:41:09;15.80;50.30
61591;DHT22;71994;52.410;-1.966;2024-03-08T06:44:18;15.80;50.30
61591;DHT22;71994;52.410;-1.966;2024-03-08T06:47:27;15.80;50.20
61591;DHT22;71994;52.410;-1.966;2024-03-08T06:50:34;15.70;50.30
61591;DHT22;71994;52.410;-1.966;2024-03-08T06:53:40;15.70;50.30
61591;DHT22;71994;52.410;-1.966;2024-03-08T06:56:46;15.70;50.20
61591;DHT22;71994;52.410;-1.966;2024-03-08T06:59:53;15.70;50.20
61591;DHT22;71994;52.410;-1.966;2024-03-08T07:03:03;15.70;50.20
61591;DHT22;71994;52.410;-1.966;2024-03-08T07:06:09;15.70;50.10
61591;DHT22;71994;52.410;-1.966;2024-03-08T07:09:17;15.70;50.20
61591;DHT22;71994;52.410;-1.966;2024-03-08T07:12:23;15.70;50.30
61591;DHT22;71994;52.410;-1.966;2024-03-08T07:15:30;15.70;50.30
61591;DHT22;71994;52.410;-1.966;2024-03-08T07:18:39;15.70;50.30
61591;DHT22;71994;52.410;-1.966;2024-03-08T07:21:46;15.70;50.30
61591;DHT22;71994;52.410;-1.966;2024-03-08T07:24:52;15.60;50.20
61591;DHT22;71994;52.410;-1.966;2024-03-08T07:28:20;15.60;50.40
61591;DHT22;71994;52.410;-1.966;2024-03-08T07:31:26;15.60;50.40
61591;DHT22;71994;52.410;-1.966;2024-03-08T07:34:44;15.60;50.90
61591;DHT22;71994;52.410;-1.966;2024-03-08T07:37:51;15.80;50.80
61591;DHT22;71994;52.410;-1.966;2024-03-08T07:40:59;15.90;50.60
61591;DHT22;71994;52.410;-1.966;2024-03-08T07:44:05;16.10;50.30
61591;DHT22;71994;52.410;-1.966;2024-03-08T07:47:12;16.20;50.10
61591;DHT22;71994;52.410;-1.966;2024-03-08T07:50:23;16.30;49.90
61591;DHT22;71994;52.410;-1.966;2024-03-08T07:53:29;16.50;49.70
61591;DHT22;71994;52.410;-1.966;2024-03-08T07:56:35;16.60;49.50
61591;DHT22;71994;52.410;-1.966;2024-03-08T07:59:42;16.80;49.30
61591;DHT22;71994;52.410;-1.966;2024-03-08T08:02:48;16.90;49.10
61591;DHT22;71994;52.410;-1.966;2024-03-08T08:06:00;17.00;48.90
61591;DHT22;71994;52.410;-1.966;2024-03-08T08:09:07;17.10;48.80
61591;DHT22;71994;52.410;-1.966;2024-03-08T08:12:18;17.20;48.60
61591;DHT22;71994;52.410;-1.966;2024-03-08T08:15:24;17.40;48.70
61591;DHT22;71994;52.410;-1.966;2024-03-08T08:18:31;17.40;48.50
61591;DHT22;71994;52.410;-1.966;2024-03-08T08:21:41;17.50;48.60
61591;DHT22;71994;52.410;-1.966;2024-03-08T08:24:48;17.60;48.70
61591;DHT22;71994;52.410;-1.966;2024-03-08T08:27:55;17.60;48.70
61591;DHT22;71994;52.410;-1.966;2024-03-08T08:31:01;17.60;48.70
61591;DHT22;71994;52.410;-1.966;2024-03-08T08:34:09;17.60;48.70
61591;DHT22;71994;52.410;-1.966;2024-03-08T08:37:19;17.60;48.80
61591;DHT22;71994;52.410;-1.966;2024-03-08T08:40:26;17.60;48.60
61591;DHT22;71994;52.410;-1.966;2024-03-08T08:43:34;17.60;48.80
61591;DHT22;71994;52.410;-1.966;2024-03-08T08:46:40;17.50;49.20
61591;DHT22;71994;52.410;-1.966;2024-03-08T08:49:46;17.50;49.00
61591;DHT22;71994;52.410;-1.966;2024-03-08T08:52:57;17.40;48.70
61591;DHT22;71994;52.410;-1.966;2024-03-08T08:56:04;17.40;48.50
61591;DHT22;71994;52.410;-1.966;2024-03-08T08:59:11;17.40;48.50
61591;DHT22;71994;52.410;-1.966;2024-03-08T09:02:22;17.30;49.10
61591;DHT22;71994;52.410;-1.966;2024-03-08T09:05:29;17.30;49.10
61591;DHT22;71994;52.410;-1.966;2024-03-08T09:08:38;17.30;49.20
61591;DHT22;71994;52.410;-1.966;2024-03-08T09:11:44;17.20;49.40
61591;DHT22;71994;52.410;-1.966;2024-03-08T09:14:52;17.10;49.00
61591;DHT22;71994;52.410;-1.966;2024-03-08T09:17:58;17.10;49.60
61591;DHT22;71994;52.410;-1.966;2024-03-08T09:21:05;17.00;49.70
61591;DHT22;71994;52.410;-1.966;2024-03-08T09:24:15;17.00;49.80
61591;DHT22;71994;52.410;-1.966;2024-03-08T09:27:23;16.90;49.90
61591;DHT22;71994;52.410;-1.966;2024-03-08T09:30:30;16.90;49.90
61591;DHT22;71994;52.410;-1.966;2024-03-08T09:33:37;16.90;49.90
61591;DHT22;71994;52.410;-1.966;2024-03-08T09:36:45;16.80;49.70
61591;DHT22;71994;52.410;-1.966;2024-03-08T09:39:54;16.80;50.10
61591;DHT22;71994;52.410;-1.966;2024-03-08T09:43:02;16.80;50.10
61591;DHT22;71994;52.410;-1.966;2024-03-08T09:46:08;16.70;50.20
61591;DHT22;71994;52.410;-1.966;2024-03-08T09:49:15;16.70;50.30
61591;DHT22;71994;52.410;-1.966;2024-03-08T09:52:22;16.70;50.30
61591;DHT22;71994;52.410;-1.966;2024-03-08T09:55:31;16.70;50.20
61591;DHT22;71994;52.410;-1.966;2024-03-08T09:58:39;16.90;50.00
61591;DHT22;71994;52.410;-1.966;2024-03-08T10:02:14;16.90;49.90
61591;DHT22;71994;52.410;-1.966;2024-03-08T10:05:27;17.00;49.80
61591;DHT22;71994;52.410;-1.966;2024-03-08T10:08:34;17.00;49.70
61591;DHT22;71994;52.410;-1.966;2024-03-08T10:11:43;17.00;49.60
61591;DHT22;71994;52.410;-1.966;2024-03-08T10:14:49;17.10;49.50
61591;DHT22;71994;52.410;-1.966;2024-03-08T10:17:57;17.20;49.50
61591;DHT22;71994;52.410;-1.966;2024-03-08T10:21:06;17.10;49.40
61591;DHT22;71994;52.410;-1.966;2024-03-08T10:24:16;17.20;49.30
61591;DHT22;71994;52.410;-1.966;2024-03-08T10:27:26;17.20;49.20
61591;DHT22;71994;52.410;-1.966;2024-03-08T10:30:33;17.20;49.10
61591;DHT22;71994;52.410;-1.966;2024-03-08T10:33:39;17.30;49.20
61591;DHT22;71994;52.410;-1.966;2024-03-08T10:36:46;17.40;49.00
61591;DHT22;71994;52.410;-1.966;2024-03-08T10:40:02;17.50;49.10
61591;DHT22;71994;52.410;-1.966;2024-03-08T10:43:23;17.60;48.90
61591;DHT22;71994;52.410;-1.966;2024-03-08T10:46:45;17.70;49.00
61591;DHT22;71994;52.410;-1.966;2024-03-08T10:50:08;17.80;48.90
61591;DHT22;71994;52.410;-1.966;2024-03-08T10:53:18;17.90;48.70
61591;DHT22;71994;52.410;-1.966;2024-03-08T10:56:24;18.00;48.70
61591;DHT22;71994;52.410;-1.966;2024-03-08T10:59:34;18.10;48.70
61591;DHT22;71994;52.410;-1.966;2024-03-08T11:02:43;18.10;48.70
61591;DHT22;71994;52.410;-1.966;2024-03-08T11:05:50;18.10;48.50
61591;DHT22;71994;52.410;-1.966;2024-03-08T11:09:00;18.10;48.60
61591;DHT22;71994;52.410;-1.966;2024-03-08T11:12:20;18.20;48.40
61591;DHT22;71994;52.410;-1.966;2024-03-08T11:15:31;18.20;48.70
61591;DHT22;71994;52.410;-1.966;2024-03-08T11:18:37;18.30;48.70
61591;DHT22;71994;52.410;-1.966;2024-03-08T11:21:44;18.30;48.50
61591;DHT22;71994;52.410;-1.966;2024-03-08T11:24:50;18.30;47.90
61591;DHT22;71994;52.410;-1.966;2024-03-08T11:28:10;18.40;47.80
61591;DHT22;71994;52.410;-1.966;2024-03-08T11:31:27;18.40;47.80
61591;DHT22;71994;52.410;-1.966;2024-03-08T11:34:36;18.40;47.80
61591;DHT22;71994;52.410;-1.966;2024-03-08T11:37:42;18.30;47.70
61591;DHT22;71994;52.410;-1.966;2024-03-08T11:40:50;18.30;47.90
61591;DHT22;71994;52.410;-1.966;2024-03-08T11:44:04;18.30;47.80
61591;DHT22;71994;52.410;-1.966;2024-03-08T11:47:20;18.20;47.90
61591;DHT22;71994;52.410;-1.966;2024-03-08T11:50:26;18.10;48.10
61591;DHT22;71994;52.410;-1.966;2024-03-08T11:53:33;18.10;48.10
61591;DHT22;71994;52.410;-1.966;2024-03-08T11:56:39;18.10;47.80
61591;DHT22;71994;52.410;-1.966;2024-03-08T11:59:50;18.10;48.20
61591;DHT22;71994;52.410;-1.966;2024-03-08T12:03:08;18.00;48.30
61591;DHT22;71994;52.410;-1.966;2024-03-08T12:06:18;18.00;48.40
61591;DHT22;71994;52.410;-1.966;2024-03-08T12:09:24;17.90;48.40
61591;DHT22;71994;52.410;-1.966;2024-03-08T12:12:31;17.80;48.40
61591;DHT22;71994;52.410;-1.966;2024-03-08T12:15:39;17.80;48.40
61591;DHT22;71994;52.410;-1.966;2024-03-08T12:18:51;17.80;48.50
61591;DHT22;71994;52.410;-1.966;2024-03-08T12:21:58;17.70;48.70
61591;DHT22;71994;52.410;-1.966;2024-03-08T12:25:14;17.80;48.80
61591;DHT22;71994;52.410;-1.966;2024-03-08T12:28:20;17.80;49.20
61591;DHT22;71994;52.410;-1.966;2024-03-08T12:31:26;17.80;49.00
61591;DHT22;71994;52.410;-1.966;2024-03-08T12:34:36;18.00;49.10
61591;DHT22;71994;52.410;-1.966;2024-03-08T12:37:42;18.10;48.80
61591;DHT22;71994;52.410;-1.966;2024-03-08T12:40:49;18.10;48.90
61591;DHT22;71994;52.410;-1.966;2024-03-08T12:43:56;18.20;48.80
61591;DHT22;71994;52.410;-1.966;2024-03-08T12:47:06;18.40;48.70
61591;DHT22;71994;52.410;-1.966;2024-03-08T12:50:15;18.50;49.00
61591;DHT22;71994;52.410;-1.966;2024-03-08T12:53:21;18.60;48.70
61591;DHT22;71994;52.410;-1.966;2024-03-08T12:56:32;18.70;48.90
61591;DHT22;71994;52.410;-1.966;2024-03-08T12:59:40;18.80;48.60
61591;DHT22;71994;52.410;-1.966;2024-03-08T13:02:46;18.80;48.40
61591;DHT22;71994;52.410;-1.966;2024-03-08T13:05:57;19.00;48.00
61591;DHT22;71994;52.410;-1.966;2024-03-08T13:09:03;19.00;47.80
61591;DHT22;71994;52.410;-1.966;2024-03-08T13:12:10;19.00;47.30
61591;DHT22;71994;52.410;-1.966;2024-03-08T13:15:16;18.90;46.70
61591;DHT22;71994;52.410;-1.966;2024-03-08T13:18:23;19.00;46.50
61591;DHT22;71994;52.410;-1.966;2024-03-08T13:21:33;18.90;46.30
61591;DHT22;71994;52.410;-1.966;2024-03-08T13:24:42;18.90;47.10
61591;DHT22;71994;52.410;-1.966;2024-03-08T13:27:49;18.90;47.20
61591;DHT22;71994;52.410;-1.966;2024-03-08T13:30:56;18.90;47.20
61591;DHT22;71994;52.410;-1.966;2024-03-08T13:34:04;18.80;47.30
61591;DHT22;71994;52.410;-1.966;2024-03-08T13:37:15;18.80;47.30
61591;DHT22;71994;52.410;-1.966;2024-03-08T13:40:22;18.80;47.50
61591;DHT22;71994;52.410;-1.966;2024-03-08T13:43:30;18.80;47.60
61591;DHT22;71994;52.410;-1.966;2024-03-08T13:46:38;18.70;47.70
61591;DHT22;71994;52.410;-1.966;2024-03-08T13:49:45;18.70;47.70
61591;DHT22;71994;52.410;-1.966;2024-03-08T13:52:56;18.60;47.80
61591;DHT22;71994;52.410;-1.966;2024-03-08T13:56:03;18.60;47.80
61591;DHT22;71994;52.410;-1.966;2024-03-08T13:59:09;18.50;48.00
61591;DHT22;71994;52.410;-1.966;2024-03-08T14:02:16;18.40;48.10
61591;DHT22;71994;52.410;-1.966;2024-03-08T14:05:22;18.40;48.20
61591;DHT22;71994;52.410;-1.966;2024-03-08T14:08:31;18.40;48.30
61591;DHT22;71994;52.410;-1.966;2024-03-08T14:11:40;18.30;48.30
61591;DHT22;71994;52.410;-1.966;2024-03-08T14:14:47;18.30;48.30
61591;DHT22;71994;52.410;-1.966;2024-03-08T14:17:53;18.20;48.40
61591;DHT22;71994;52.410;-1.966;2024-03-08T14:21:00;18.10;48.40
61591;DHT22;71994;52.410;-1.966;2024-03-08T14:24:12;18.10;48.60
61591;DHT22;71994;52.410;-1.966;2024-03-08T14:27:20;18.10;48.70
61591;DHT22;71994;52.410;-1.966;2024-03-08T14:30:26;18.10;48.70
61591;DHT22;71994;52.410;-1.966;2024-03-08T14:33:40;18.00;48.80
61591;DHT22;71994;52.410;-1.966;2024-03-08T14:36:47;17.90;49.00
61591;DHT22;71994;52.410;-1.966;2024-03-08T14:39:58;17.90;49.10
61591;DHT22;71994;52.410;-1.966;2024-03-08T14:43:08;17.90;49.20
61591;DHT22;71994;52.410;-1.966;2024-03-08T14:46:15;17.80;49.10
61591;DHT22;71994;52.410;-1.966;2024-03-08T14:49:24;17.80;49.20
61591;DHT22;71994;52.410;-1.966;2024-03-08T14:52:35;17.80;49.20
61591;DHT22;71994;52.410;-1.966;2024-03-08T14:55:45;17.70;49.20
61591;DHT22;71994;52.410;-1.966;2024-03-08T14:58:54;17.70;49.30
61591;DHT22;71994;52.410;-1.966;2024-03-08T15:02:02;17.60;49.40
61591;DHT22;71994;52.410;-1.966;2024-03-08T15:05:14;17.60;49.40
61591;DHT22;71994;52.410;-1.966;2024-03-08T15:08:26;17.60;49.40
61591;DHT22;71994;52.410;-1.966;2024-03-08T15:11:35;17.60;49.40
61591;DHT22;71994;52.410;-1.966;2024-03-08T15:14:42;17.60;49.50
61591;DHT22;71994;52.410;-1.966;2024-03-08T15:17:49;17.50;49.50
61591;DHT22;71994;52.410;-1.966;2024-03-08T15:20:57;17.50;49.40
61591;DHT22;71994;52.410;-1.966;2024-03-08T15:24:04;17.50;49.50
61591;DHT22;71994;52.410;-1.966;2024-03-08T15:27:16;17.50;49.50
61591;DHT22;71994;52.410;-1.966;2024-03-08T15:30:22;17.40;49.50
61591;DHT22;71994;52.410;-1.966;2024-03-08T15:33:31;17.40;49.50
61591;DHT22;71994;52.410;-1.966;2024-03-08T15:36:48;17.30;49.60
61591;DHT22;71994;52.410;-1.966;2024-03-08T15:39:54;17.30;49.50
61591;DHT22;71994;52.410;-1.966;2024-03-08T15:43:04;17.30;49.60
61591;DHT22;71994;52.410;-1.966;2024-03-08T15:46:14;17.30;49.50
61591;DHT22;71994;52.410;-1.966;2024-03-08T15:49:21;17.30;49.60
61591;DHT22;71994;52.410;-1.966;2024-03-08T15:52:29;17.20;49.60
61591;DHT22;71994;52.410;-1.966;2024-03-08T15:55:35;17.20;49.70
61591;DHT22;71994;52.410;-1.966;2024-03-08T15:58:47;17.20;49.70
61591;DHT22;71994;52.410;-1.966;2024-03-08T16:01:53;17.20;49.60
61591;DHT22;71994;52.410;-1.966;2024-03-08T16:05:00;17.10;49.70
61591;DHT22;71994;52.410;-1.966;2024-03-08T16:08:10;17.10;49.90
61591;DHT22;71994;52.410;-1.966;2024-03-08T16:11:18;17.10;49.50
61591;DHT22;71994;52.410;-1.966;2024-03-08T16:14:27;17.10;49.30
61591;DHT22;71994;52.410;-1.966;2024-03-08T16:17:34;17.10;49.20
61591;DHT22;71994;52.410;-1.966;2024-03-08T16:20:43;17.10;49.10
61591;DHT22;71994;52.410;-1.966;2024-03-08T16:23:50;17.10;49.30
61591;DHT22;71994;52.410;-1.966;2024-03-08T16:26:57;17.10;49.00
61591;DHT22;71994;52.410;-1.966;2024-03-08T16:30:07;17.10;49.40
61591;DHT22;71994;52.410;-1.966;2024-03-08T16:33:18;17.10;49.10
61591;DHT22;71994;52.410;-1.966;2024-03-08T16:36:25;17.00;49.20
61591;DHT22;71994;52.410;-1.966;2024-03-08T16:39:31;17.10;49.40
61591;DHT22;71994;52.410;-1.966;2024-03-08T16:42:38;17.00;49.50
61591;DHT22;71994;52.410;-1.966;2024-03-08T16:45:47;17.00;49.70
61591;DHT22;71994;52.410;-1.966;2024-03-08T16:48:54;17.00;49.40
61591;DHT22;71994;52.410;-1.966;2024-03-08T16:52:00;17.00;49.80
61591;DHT22;71994;52.410;-1.966;2024-03-08T16:55:07;17.00;49.70
61591;DHT22;71994;52.410;-1.966;2024-03-08T16:58:19;17.00;49.70
61591;DHT22;71994;52.410;-1.966;2024-03-08T17:01:31;16.90;49.30
61591;DHT22;71994;52.410;-1.966;2024-03-08T17:04:39;16.90;49.80
61591;DHT22;71994;52.410;-1.966;2024-03-08T17:07:48;16.90;49.60
61591;DHT22;71994;52.410;-1.966;2024-03-08T17:10:55;16.90;49.60
61591;DHT22;71994;52.410;-1.966;2024-03-08T17:14:02;16.80;49.60
61591;DHT22;71994;52.410;-1.966;2024-03-08T17:17:12;16.80;50.00
61591;DHT22;71994;52.410;-1.966;2024-03-08T17:20:21;16.80;50.00
61591;DHT22;71994;52.410;-1.966;2024-03-08T17:23:27;16.80;50.00
61591;DHT22;71994;52.410;-1.966;2024-03-08T17:26:34;17.00;50.10
61591;DHT22;71994;52.410;-1.966;2024-03-08T17:29:42;17.10;49.90
61591;DHT22;71994;52.410;-1.966;2024-03-08T17:32:55;17.30;49.40
61591;DHT22;71994;52.410;-1.966;2024-03-08T17:36:01;17.40;49.20
61591;DHT22;71994;52.410;-1.966;2024-03-08T17:39:11;17.50;49.00
61591;DHT22;71994;52.410;-1.966;2024-03-08T17:42:29;17.60;48.70
61591;DHT22;71994;52.410;-1.966;2024-03-08T17:45:35;17.70;48.50
61591;DHT22;71994;52.410;-1.966;2024-03-08T17:48:45;17.80;48.30
61591;DHT22;71994;52.410;-1.966;2024-03-08T17:51:52;17.90;48.10
61591;DHT22;71994;52.410;-1.966;2024-03-08T17:54:59;18.00;48.00
61591;DHT22;71994;52.410;-1.966;2024-03-08T17:58:08;18.10;47.80
61591;DHT22;71994;52.410;-1.966;2024-03-08T18:01:15;18.10;47.60
61591;DHT22;71994;52.410;-1.966;2024-03-08T18:04:24;18.10;47.60
61591;DHT22;71994;52.410;-1.966;2024-03-08T18:07:31;18.20;47.50
61591;DHT22;71994;52.410;-1.966;2024-03-08T18:10:40;18.20;47.50
61591;DHT22;71994;52.410;-1.966;2024-03-08T18:13:46;18.20;47.30
61591;DHT22;71994;52.410;-1.966;2024-03-08T18:16:54;18.20;47.30
61591;DHT22;71994;52.410;-1.966;2024-03-08T18:20:04;18.20;47.60
61591;DHT22;71994;52.410;-1.966;2024-03-08T18:23:18;18.10;48.20
61591;DHT22;71994;52.410;-1.966;2024-03-08T18:26:25;18.10;48.10
61591;DHT22;71994;52.410;-1.966;2024-03-08T18:29:32;18.10;47.90
61591;DHT22;71994;52.410;-1.966;2024-03-08T18:32:39;18.10;47.90
61591;DHT22;71994;52.410;-1.966;2024-03-08T18:35:51;18.10;48.00
61591;DHT22;71994;52.410;-1.966;2024-03-08T18:39:02;18.00;48.20
61591;DHT22;71994;52.410;-1.966;2024-03-08T18:42:12;17.90;48.50
61591;DHT22;71994;52.410;-1.966;2024-03-08T18:45:23;17.90;48.30
61591;DHT22;71994;52.410;-1.966;2024-03-08T18:48:31;17.80;48.50
61591;DHT22;71994;52.410;-1.966;2024-03-08T18:51:51;17.80;48.70
61591;DHT22;71994;52.410;-1.966;2024-03-08T18:58:47;17.80;48.90
61591;DHT22;71994;52.410;-1.966;2024-03-08T19:02:03;17.70;49.00
61591;DHT22;71994;52.410;-1.966;2024-03-08T19:05:12;17.70;49.00
61591;DHT22;71994;52.410;-1.966;2024-03-08T19:08:24;17.70;49.00
61591;DHT22;71994;52.410;-1.966;2024-03-08T19:11:33;17.60;49.20
61591;DHT22;71994;52.410;-1.966;2024-03-08T19:14:40;17.60;49.00
61591;DHT22;71994;52.410;-1.966;2024-03-08T19:17:50;17.60;49.40
61591;DHT22;71994;52.410;-1.966;2024-03-08T19:21:09;17.60;49.50
61591;DHT22;71994;52.410;-1.966;2024-03-08T19:24:44;17.50;49.40
61591;DHT22;71994;52.410;-1.966;2024-03-08T19:27:59;17.50;49.30
61591;DHT22;71994;52.410;-1.966;2024-03-08T19:31:12;17.40;49.40
61591;DHT22;71994;52.410;-1.966;2024-03-08T19:34:18;17.40;49.50